sensor_id;sensor_type;location;lat;lon;timestamp;temperature;humidity
17200;DHT22;8716;52.268;20.968;2024-03-02T00:01:54;8.80;99.90
17200;DHT22;8716;52.268;20.968;2024-03-02T00:04:23;8.70;99.90
17200;DHT22;8716;52.268;20.968;2024-03-02T00:06:51;8.70;99.90
17200;DHT22;8716;52.268;20.968;2024-03-02T00:09:22;8.70;99.90
17200;DHT22;8716;52.268;20.968;2024-03-02T00:11:51;8.70;99.90
17200;DHT22;8716;52.268;20.968;2024-03-02T00:14:19;8.70;99.90
17200;DHT22;8716;52.268;20.968;2024-03-02T00:16:49;8.70;99.90
17200;DHT22;8716;52.268;20.968;2024-03-02T00:19:18;8.60;99.90
17200;DHT22;8716;52.268;20.968;2024-03-02T00:21:46;8.70;99.90
17200;DHT22;8716;52.268;20.968;2024-03-02T00:24:19;8.70;99.90
17200;DHT22;8716;52.268;20.968;2024-03-02T00:26:48;8.70;99.90
17200;DHT22;8716;52.268;20.968;2024-03-02T00:29:17;8.60;99.90
17200;DHT22;8716;52.268;20.968;2024-03-02T00:31:46;8.60;99.90
17200;DHT22;8716;52.268;20.968;2024-03-02T00:34:17;8.60;99.90
17200;DHT22;8716;52.268;20.968;2024-03-02T00:36:46;8.60;99.90
17200;DHT22;8716;52.268;20.968;2024-03-02T00:39:15;8.60;99.90
17200;DHT22;8716;52.268;20.968;2024-03-02T00:41:45;8.50;99.90
17200;DHT22;8716;52.268;20.968;2024-03-02T00:44:15;8.50;99.90
17200;DHT22;8716;52.268;20.968;2024-03-02T00:46:44;8.40;99.90
17200;DHT22;8716;52.268;20.968;2024-03-02T00:49:18;8.50;99.90
17200;DHT22;8716;52.268;20.968;2024-03-02T00:51:50;8.40;99.90
17200;DHT22;8716;52.268;20.968;2024-03-02T00:54:20;8.40;99.90
17200;DHT22;8716;52.268;20.968;2024-03-02T00:56:51;8.30;99.90
17200;DHT22;8716;52.268;20.968;2024-03-02T00:59:22;8.40;99.90
17200;DHT22;8716;52.268;20.968;2024-03-02T01:01:51;8.40;99.90
17200;DHT22;8716;52.268;20.968;2024-03-02T01:04:22;8.30;99.90
17200;DHT22;8716;52.268;20.968;2024-03-02T01:06:50;8.30;99.90
17200;DHT22;8716;52.268;20.968;2024-03-02T01:09:19;8.30;99.90
17200;DHT22;8716;52.268;20.968;2024-03-02T01:11:47;8.30;99.90
17200;DHT22;8716;52.268;20.968;2024-03-02T01:14:16;8.20;99.90
17200;DHT22;8716;52.268;20.968;2024-03-02T01:16:44;8.20;99.90
17200;DHT22;8716;52.268;20.968;2024-03-02T01:19:13;8.30;99.90
17200;DHT22;8716;52.268;20.968;2024-03-02T01:21:43;8.20;99.90
17200;DHT22;8716;52.268;20.968;2024-03-02T01:24:11;8.20;99.90
17200;DHT22;8716;52.268;20.968;2024-03-02T01:26:40;8.10;99.90
17200;DHT22;8716;52.268;20.968;2024-03-02T01:29:08;8.10;99.90
17200;DHT22;8716;52.268;20.968;2024-03-02T01:31:36;8.20;99.90
17200;DHT22;8716;52.268;20.968;2024-03-02T01:34:06;8.20;99.90
17200;DHT22;8716;52.268;20.968;2024-03-02T01:36:35;8.20;99.90
17200;DHT22;8716;52.268;20.968;2024-03-02T01:39:04;8.20;99.90
17200;DHT22;8716;52.268;20.968;2024-03-02T01:41:35;8.10;99.90
17200;DHT22;8716;52.268;20.968;2024-03-02T01:44:04;8.10;99.90
17200;DHT22;8716;52.268;20.968;2024-03-02T01:46:32;8.20;99.90
17200;DHT22;8716;52.268;20.968;2024-03-02T01:49:04;8.10;99.90
17200;DHT22;8716;52.268;20.968;2024-03-02T01:51:32;8.10;99.90
17200;DHT22;8716;52.268;20.968;2024-03-02T01:54:01;8.10;99.90
17200;DHT22;8716;52.268;20.968;2024-03-02T01:56:30;8.10;99.90
17200;DHT22;8716;52.268;20.968;2024-03-02T01:58:59;8.10;99.90
17200;DHT22;8716;52.268;20.968;2024-03-02T02:01:27;8.10;99.90
17200;DHT22;8716;52.268;20.968;2024-03-02T02:03:56;8.00;99.90
17200;DHT22;8716;52.268;20.968;2024-03-02T02:06:24;8.00;99.90
17200;DHT22;8716;52.268;20.968;2024-03-02T02:08:53;8.00;99.90
17200;DHT22;8716;52.268;20.968;2024-03-02T02:11:21;8.00;99.90
17200;DHT22;8716;52.268;20.968;2024-03-02T02:13:51;8.00;99.90
17200;DHT22;8716;52.268;20.968;2024-03-02T02:16:22;8.00;99.90
17200;DHT22;8716;52.268;20.968;2024-03-02T02:18:53;8.00;99.90
17200;DHT22;8716;52.268;20.968;2024-03-02T02:21:24;7.90;99.90
17200;DHT22;8716;52.268;20.968;2024-03-02T02:23:52;7.90;99.90
17200;DHT22;8716;52.268;20.968;2024-03-02T02:26:20;7.90;99.90
17200;DHT22;8716;52.268;20.968;2024-03-02T02:28:49;7.90;99.90
17200;DHT22;8716;52.268;20.968;2024-03-02T02:31:17;7.90;99.90
17200;DHT22;8716;52.268;20.968;2024-03-02T02:33:45;7.90;99.90
17200;DHT22;8716;52.268;20.968;2024-03-02T02:36:14;7.90;99.90
17200;DHT22;8716;52.268;20.968;2024-03-02T02:38:46;7.80;99.90
17200;DHT22;8716;52.268;20.968;2024-03-02T02:41:15;7.80;99.90
17200;DHT22;8716;52.268;20.968;2024-03-02T02:43:43;7.70;99.90
17200;DHT22;8716;52.268;20.968;2024-03-02T02:46:11;7.70;99.90
17200;DHT22;8716;52.268;20.968;2024-03-02T02:48:39;7.70;99.90
17200;DHT22;8716;52.268;20.968;2024-03-02T02:51:08;7.70;99.90
17200;DHT22;8716;52.268;20.968;2024-03-02T02:53:36;7.70;99.90
17200;DHT22;8716;52.268;20.968;2024-03-02T02:56:08;7.70;99.90
17200;DHT22;8716;52.268;20.968;2024-03-02T02:58:37;7.80;99.90
17200;DHT22;8716;52.268;20.968;2024-03-02T03:01:05;7.70;99.90
17200;DHT22;8716;52.268;20.968;2024-03-02T03:03:34;7.70;99.90
17200;DHT22;8716;52.268;20.968;2024-03-02T03:06:03;7.70;99.90
17200;DHT22;8716;52.268;20.968;2024-03-02T03:08:31;7.70;99.90
17200;DHT22;8716;52.268;20.968;2024-03-02T03:11:00;7.70;99.90
17200;DHT22;8716;52.268;20.968;2024-03-02T03:13:30;7.60;99.90
17200;DHT22;8716;52.268;20.968;2024-03-02T03:15:59;7.60;99.90
17200;DHT22;8716;52.268;20.968;2024-03-02T03:18:27;7.60;99.90
17200;DHT22;8716;52.268;20.968;2024-03-02T03:20:55;7.60;99.90
17200;DHT22;8716;52.268;20.968;2024-03-02T03:23:24;7.50;99.90
17200;DHT22;8716;52.268;20.968;2024-03-02T03:25:53;7.50;99.90
17200;DHT22;8716;52.268;20.968;2024-03-02T03:28:21;7.50;99.90
17200;DHT22;8716;52.268;20.968;2024-03-02T03:30:50;7.50;99.90
17200;DHT22;8716;52.268;20.968;2024-03-02T03:33:19;7.50;99.90
17200;DHT22;8716;52.268;20.968;2024-03-02T03:35:47;7.50;99.90
17200;DHT22;8716;52.268;20.968;2024-03-02T03:38:15;7.40;99.90
17200;DHT22;8716;52.268;20.968;2024-03-02T03:40:44;7.40;99.90
17200;DHT22;8716;52.268;20.968;2024-03-02T03:43:12;7.30;99.90
17200;DHT22;8716;52.268;20.968;2024-03-02T03:45:42;7.30;99.90
17200;DHT22;8716;52.268;20.968;2024-03-02T03:48:12;7.30;99.90
17200;DHT22;8716;52.268;20.968;2024-03-02T03:50:41;7.30;99.90
17200;DHT22;8716;52.268;20.968;2024-03-02T03:53:09;7.30;99.90
17200;DHT22;8716;52.268;20.968;2024-03-02T03:55:37;7.30;99.90
17200;DHT22;8716;52.268;20.968;2024-03-02T03:58:06;7.30;99.90
17200;DHT22;8716;52.268;20.968;2024-03-02T04:00:34;7.30;99.90
17200;DHT22;8716;52.268;20.968;2024-03-02T04:03:03;7.30;99.90
17200;DHT22;8716;52.268;20.968;2024-03-02T04:05:33;7.30;99.90
17200;DHT22;8716;52.268;20.968;2024-03-02T04:08:01;7.30;99.90
17200;DHT22;8716;52.268;20.968;2024-03-02T04:10:29;7.30;99.90
17200;DHT22;8716;52.268;20.968;2024-03-02T04:12:57;7.30;99.90
17200;DHT22;8716;52.268;20.968;2024-03-02T04:15:26;7.30;99.90
17200;DHT22;8716;52.268;20.968;2024-03-02T04:17:54;7.20;99.90
17200;DHT22;8716;52.268;20.968;2024-03-02T04:20:23;7.20;99.90
17200;DHT22;8716;52.268;20.968;2024-03-02T04:22:53;7.20;99.90
17200;DHT22;8716;52.268;20.968;2024-03-02T04:25:21;7.20;99.90
17200;DHT22;8716;52.268;20.968;2024-03-02T04:27:50;7.10;99.90
17200;DHT22;8716;52.268;20.968;2024-03-02T04:30:18;7.10;99.90
17200;DHT22;8716;52.268;20.968;2024-03-02T04:32:46;7.10;99.90
17200;DHT22;8716;52.268;20.968;2024-03-02T04:35:16;7.10;99.90
17200;DHT22;8716;52.268;20.968;2024-03-02T04:37:44;7.10;99.90
17200;DHT22;8716;52.268;20.968;2024-03-02T04:40:14;7.10;99.90
17200;DHT22;8716;52.268;20.968;2024-03-02T04:42:42;7.10;99.90
17200;DHT22;8716;52.268;20.968;2024-03-02T04:45:11;7.10;99.90
17200;DHT22;8716;52.268;20.968;2024-03-02T04:47:41;7.10;99.90
17200;DHT22;8716;52.268;20.968;2024-03-02T04:50:13;7.10;99.90
17200;DHT22;8716;52.268;20.968;2024-03-02T04:52:42;7.10;99.90
17200;DHT22;8716;52.268;20.968;2024-03-02T04:55:10;7.10;99.90
17200;DHT22;8716;52.268;20.968;2024-03-02T04:57:53;7.10;99.90
17200;DHT22;8716;52.268;20.968;2024-03-02T05:00:23;7.10;99.90
17200;DHT22;8716;52.268;20.968;2024-03-02T05:02:51;7.10;99.90
17200;DHT22;8716;52.268;20.968;2024-03-02T05:05:20;7.00;99.90
17200;DHT22;8716;52.268;20.968;2024-03-02T05:07:50;7.00;99.90
17200;DHT22;8716;52.268;20.968;2024-03-02T05:10:19;7.00;99.90
17200;DHT22;8716;52.268;20.968;2024-03-02T05:12:47;7.00;99.90
17200;DHT22;8716;52.268;20.968;2024-03-02T05:15:26;7.00;99.90
17200;DHT22;8716;52.268;20.968;2024-03-02T05:17:54;7.00;99.90
17200;DHT22;8716;52.268;20.968;2024-03-02T05:20:24;7.00;99.90
17200;DHT22;8716;52.268;20.968;2024-03-02T05:22:52;7.10;99.90
17200;DHT22;8716;52.268;20.968;2024-03-02T05:25:21;7.10;99.90
17200;DHT22;8716;52.268;20.968;2024-03-02T05:27:49;7.10;99.90
17200;DHT22;8716;52.268;20.968;2024-03-02T05:30:18;7.10;99.90
17200;DHT22;8716;52.268;20.968;2024-03-02T05:32:48;7.10;99.90
17200;DHT22;8716;52.268;20.968;2024-03-02T05:35:19;7.10;99.90
17200;DHT22;8716;52.268;20.968;2024-03-02T05:37:47;7.10;99.90
17200;DHT22;8716;52.268;20.968;2024-03-02T05:40:15;7.10;99.90
17200;DHT22;8716;52.268;20.968;2024-03-02T05:42:45;7.10;99.90
17200;DHT22;8716;52.268;20.968;2024-03-02T05:45:14;7.10;99.90
17200;DHT22;8716;52.268;20.968;2024-03-02T05:47:43;7.10;99.90
17200;DHT22;8716;52.268;20.968;2024-03-02T05:50:13;7.10;99.90
17200;DHT22;8716;52.268;20.968;2024-03-02T05:52:41;7.20;99.90
17200;DHT22;8716;52.268;20.968;2024-03-02T05:55:10;7.20;99.90
17200;DHT22;8716;52.268;20.968;2024-03-02T05:57:38;7.20;99.90
17200;DHT22;8716;52.268;20.968;2024-03-02T06:00:26;7.20;99.90
17200;DHT22;8716;52.268;20.968;2024-03-02T06:02:54;7.20;99.90
17200;DHT22;8716;52.268;20.968;2024-03-02T06:05:25;7.20;99.90
17200;DHT22;8716;52.268;20.968;2024-03-02T06:07:53;7.30;99.90
17200;DHT22;8716;52.268;20.968;2024-03-02T06:10:21;7.20;99.90
17200;DHT22;8716;52.268;20.968;2024-03-02T06:12:50;7.30;99.90
17200;DHT22;8716;52.268;20.968;2024-03-02T06:15:18;7.30;99.90
17200;DHT22;8716;52.268;20.968;2024-03-02T06:17:46;7.30;99.90
17200;DHT22;8716;52.268;20.968;2024-03-02T06:20:15;7.30;99.90
17200;DHT22;8716;52.268;20.968;2024-03-02T06:22:45;7.30;99.90
17200;DHT22;8716;52.268;20.968;2024-03-02T06:25:13;7.40;99.90
17200;DHT22;8716;52.268;20.968;2024-03-02T06:27:41;7.40;99.90
17200;DHT22;8716;52.268;20.968;2024-03-02T06:30:11;7.40;99.90
17200;DHT22;8716;52.268;20.968;2024-03-02T06:32:39;7.50;99.90
17200;DHT22;8716;52.268;20.968;2024-03-02T06:35:10;7.50;99.90
17200;DHT22;8716;52.268;20.968;2024-03-02T06:37:39;7.50;99.90
17200;DHT22;8716;52.268;20.968;2024-03-02T06:40:10;7.50;99.90
17200;DHT22;8716;52.268;20.968;2024-03-02T06:42:39;7.50;99.90
17200;DHT22;8716;52.268;20.968;2024-03-02T06:45:08;7.50;99.90
17200;DHT22;8716;52.268;20.968;2024-03-02T06:47:36;7.60;99.90
17200;DHT22;8716;52.268;20.968;2024-03-02T06:50:05;7.60;99.90
17200;DHT22;8716;52.268;20.968;2024-03-02T06:52:34;7.60;99.90
17200;DHT22;8716;52.268;20.968;2024-03-02T06:55:02;7.70;99.90
17200;DHT22;8716;52.268;20.968;2024-03-02T06:57:33;7.70;99.90
17200;DHT22;8716;52.268;20.968;2024-03-02T07:00:01;7.70;99.90
17200;DHT22;8716;52.268;20.968;2024-03-02T07:02:32;7.70;99.90
17200;DHT22;8716;52.268;20.968;2024-03-02T07:05:00;7.70;99.90
17200;DHT22;8716;52.268;20.968;2024-03-02T07:07:28;7.70;99.90
17200;DHT22;8716;52.268;20.968;2024-03-02T07:09:57;7.80;99.90
17200;DHT22;8716;52.268;20.968;2024-03-02T07:12:26;7.90;99.90
17200;DHT22;8716;52.268;20.968;2024-03-02T07:14:56;7.90;99.90
17200;DHT22;8716;52.268;20.968;2024-03-02T07:17:52;8.00;99.90
17200;DHT22;8716;52.268;20.968;2024-03-02T07:20:20;8.00;99.90
17200;DHT22;8716;52.268;20.968;2024-03-02T07:22:49;8.00;99.90
17200;DHT22;8716;52.268;20.968;2024-03-02T07:25:17;8.10;99.90
17200;DHT22;8716;52.268;20.968;2024-03-02T07:27:48;8.10;99.90
17200;DHT22;8716;52.268;20.968;2024-03-02T07:30:18;8.10;99.90
17200;DHT22;8716;52.268;20.968;2024-03-02T07:32:49;8.10;99.90
17200;DHT22;8716;52.268;20.968;2024-03-02T07:35:18;8.10;99.90
17200;DHT22;8716;52.268;20.968;2024-03-02T07:37:46;8.10;99.90
17200;DHT22;8716;52.268;20.968;2024-03-02T07:40:14;8.20;99.90
17200;DHT22;8716;52.268;20.968;2024-03-02T07:42:43;8.20;99.90
17200;DHT22;8716;52.268;20.968;2024-03-02T07:45:13;8.20;99.90
17200;DHT22;8716;52.268;20.968;2024-03-02T07:47:43;8.30;99.90
17200;DHT22;8716;52.268;20.968;2024-03-02T07:50:11;8.30;99.90
17200;DHT22;8716;52.268;20.968;2024-03-02T07:52:40;8.30;99.90
17200;DHT22;8716;52.268;20.968;2024-03-02T07:55:08;8.40;99.90
17200;DHT22;8716;52.268;20.968;2024-03-02T07:57:36;8.40;99.90
17200;DHT22;8716;52.268;20.968;2024-03-02T08:00:07;8.40;99.90
17200;DHT22;8716;52.268;20.968;2024-03-02T08:02:40;8.40;99.90
17200;DHT22;8716;52.268;20.968;2024-03-02T08:05:10;8.40;99.90
17200;DHT22;8716;52.268;20.968;2024-03-02T08:07:39;8.50;99.90
17200;DHT22;8716;52.268;20.968;2024-03-02T08:10:08;8.50;99.90
17200;DHT22;8716;52.268;20.968;2024-03-02T08:12:37;8.50;99.90
17200;DHT22;8716;52.268;20.968;2024-03-02T08:15:06;8.60;99.90
17200;DHT22;8716;52.268;20.968;2024-03-02T08:17:35;8.60;99.90
17200;DHT22;8716;52.268;20.968;2024-03-02T08:20:06;8.70;99.90
17200;DHT22;8716;52.268;20.968;2024-03-02T08:22:36;8.60;99.90
17200;DHT22;8716;52.268;20.968;2024-03-02T08:25:05;8.70;99.90
17200;DHT22;8716;52.268;20.968;2024-03-02T08:27:34;8.70;99.90
17200;DHT22;8716;52.268;20.968;2024-03-02T08:30:03;8.80;99.90
17200;DHT22;8716;52.268;20.968;2024-03-02T08:32:34;8.80;99.90
17200;DHT22;8716;52.268;20.968;2024-03-02T08:35:03;8.80;99.90
17200;DHT22;8716;52.268;20.968;2024-03-02T08:37:31;8.80;99.90
17200;DHT22;8716;52.268;20.968;2024-03-02T08:40:02;8.90;99.90
17200;DHT22;8716;52.268;20.968;2024-03-02T08:42:34;9.00;99.90
17200;DHT22;8716;52.268;20.968;2024-03-02T08:45:03;9.00;99.90
17200;DHT22;8716;52.268;20.968;2024-03-02T08:47:31;9.00;99.90
17200;DHT22;8716;52.268;20.968;2024-03-02T08:50:00;9.00;99.90
17200;DHT22;8716;52.268;20.968;2024-03-02T08:52:31;9.00;99.90
17200;DHT22;8716;52.268;20.968;2024-03-02T08:55:00;9.00;99.90
17200;DHT22;8716;52.268;20.968;2024-03-02T08:57:29;9.00;99.90
17200;DHT22;8716;52.268;20.968;2024-03-02T08:59:57;9.00;99.90
17200;DHT22;8716;52.268;20.968;2024-03-02T09:02:26;8.90;99.90
17200;DHT22;8716;52.268;20.968;2024-03-02T09:04:55;9.00;99.90
17200;DHT22;8716;52.268;20.968;2024-03-02T09:07:23;9.00;99.90
17200;DHT22;8716;52.268;20.968;2024-03-02T09:09:51;9.10;99.90
17200;DHT22;8716;52.268;20.968;2024-03-02T09:12:22;9.10;99.90
17200;DHT22;8716;52.268;20.968;2024-03-02T09:14:50;9.20;99.90
17200;DHT22;8716;52.268;20.968;2024-03-02T09:17:18;9.30;99.90
17200;DHT22;8716;52.268;20.968;2024-03-02T09:19:47;9.30;99.90
17200;DHT22;8716;52.268;20.968;2024-03-02T09:22:15;9.30;99.90
17200;DHT22;8716;52.268;20.968;2024-03-02T09:24:43;9.20;99.90
17200;DHT22;8716;52.268;20.968;2024-03-02T09:27:12;9.30;99.90
17200;DHT22;8716;52.268;20.968;2024-03-02T09:29:42;9.30;99.90
17200;DHT22;8716;52.268;20.968;2024-03-02T09:32:13;9.40;99.90
17200;DHT22;8716;52.268;20.968;2024-03-02T09:34:41;9.40;99.90
17200;DHT22;8716;52.268;20.968;2024-03-02T09:37:10;9.50;99.90
17200;DHT22;8716;52.268;20.968;2024-03-02T09:39:38;9.60;99.90
17200;DHT22;8716;52.268;20.968;2024-03-02T09:42:10;9.70;99.90
17200;DHT22;8716;52.268;20.968;2024-03-02T09:44:39;9.70;99.90
17200;DHT22;8716;52.268;20.968;2024-03-02T09:47:09;9.70;99.90
17200;DHT22;8716;52.268;20.968;2024-03-02T09:49:37;9.70;99.90
17200;DHT22;8716;52.268;20.968;2024-03-02T09:52:07;9.70;99.90
17200;DHT22;8716;52.268;20.968;2024-03-02T09:54:36;9.80;99.90
17200;DHT22;8716;52.268;20.968;2024-03-02T09:57:04;9.80;99.90
17200;DHT22;8716;52.268;20.968;2024-03-02T09:59:36;9.80;99.90
17200;DHT22;8716;52.268;20.968;2024-03-02T10:02:05;10.00;99.90
17200;DHT22;8716;52.268;20.968;2024-03-02T10:04:35;10.10;99.90
17200;DHT22;8716;52.268;20.968;2024-03-02T10:07:14;10.20;99.90
17200;DHT22;8716;52.268;20.968;2024-03-02T10:09:44;10.30;99.90
17200;DHT22;8716;52.268;20.968;2024-03-02T10:12:13;10.30;99.90
17200;DHT22;8716;52.268;20.968;2024-03-02T10:14:43;10.40;99.90
17200;DHT22;8716;52.268;20.968;2024-03-02T10:17:12;10.40;99.90
17200;DHT22;8716;52.268;20.968;2024-03-02T10:19:42;10.50;99.90
17200;DHT22;8716;52.268;20.968;2024-03-02T10:22:10;10.40;99.90
17200;DHT22;8716;52.268;20.968;2024-03-02T10:24:43;10.50;99.90
17200;DHT22;8716;52.268;20.968;2024-03-02T10:27:16;10.60;99.90
17200;DHT22;8716;52.268;20.968;2024-03-02T10:29:46;10.60;99.90
17200;DHT22;8716;52.268;20.968;2024-03-02T10:32:15;10.70;99.90
17200;DHT22;8716;52.268;20.968;2024-03-02T10:34:46;10.70;99.90
17200;DHT22;8716;52.268;20.968;2024-03-02T10:37:15;10.70;99.90
17200;DHT22;8716;52.268;20.968;2024-03-02T10:39:46;10.80;99.90
17200;DHT22;8716;52.268;20.968;2024-03-02T10:42:15;10.90;99.90
17200;DHT22;8716;52.268;20.968;2024-03-02T10:44:45;11.00;99.90
17200;DHT22;8716;52.268;20.968;2024-03-02T10:47:14;11.10;99.90
17200;DHT22;8716;52.268;20.968;2024-03-02T10:49:45;11.10;99.90
17200;DHT22;8716;52.268;20.968;2024-03-02T10:52:15;11.30;99.90
17200;DHT22;8716;52.268;20.968;2024-03-02T10:54:44;11.40;99.90
17200;DHT22;8716;52.268;20.968;2024-03-02T10:57:14;11.60;99.90
17200;DHT22;8716;52.268;20.968;2024-03-02T10:59:52;11.80;99.90
17200;DHT22;8716;52.268;20.968;2024-03-02T11:02:21;12.00;99.90
17200;DHT22;8716;52.268;20.968;2024-03-02T11:04:54;12.00;99.90
17200;DHT22;8716;52.268;20.968;2024-03-02T11:07:23;12.10;99.90
17200;DHT22;8716;52.268;20.968;2024-03-02T11:09:56;12.10;99.90
17200;DHT22;8716;52.268;20.968;2024-03-02T11:12:28;12.10;99.90
17200;DHT22;8716;52.268;20.968;2024-03-02T11:14:58;12.10;99.90
17200;DHT22;8716;52.268;20.968;2024-03-02T11:17:27;12.10;99.90
17200;DHT22;8716;52.268;20.968;2024-03-02T11:19:57;12.00;99.90
17200;DHT22;8716;52.268;20.968;2024-03-02T11:22:29;12.00;99.90
17200;DHT22;8716;52.268;20.968;2024-03-02T11:24:57;12.00;99.90
17200;DHT22;8716;52.268;20.968;2024-03-02T11:28:00;12.00;99.90
17200;DHT22;8716;52.268;20.968;2024-03-02T11:30:50;11.90;99.90
17200;DHT22;8716;52.268;20.968;2024-03-02T11:33:26;11.90;99.90
17200;DHT22;8716;52.268;20.968;2024-03-02T11:35:58;12.00;99.90
17200;DHT22;8716;52.268;20.968;2024-03-02T11:38:34;12.10;99.90
17200;DHT22;8716;52.268;20.968;2024-03-02T11:41:05;12.20;99.90
17200;DHT22;8716;52.268;20.968;2024-03-02T11:43:38;12.30;99.90
17200;DHT22;8716;52.268;20.968;2024-03-02T11:46:07;12.40;99.90
17200;DHT22;8716;52.268;20.968;2024-03-02T11:48:36;12.50;99.90
17200;DHT22;8716;52.268;20.968;2024-03-02T11:51:06;12.60;99.90
17200;DHT22;8716;52.268;20.968;2024-03-02T11:53:35;12.50;99.90
17200;DHT22;8716;52.268;20.968;2024-03-02T11:56:06;12.50;99.90
17200;DHT22;8716;52.268;20.968;2024-03-02T11:58:37;12.40;99.90
17200;DHT22;8716;52.268;20.968;2024-03-02T12:01:08;12.50;99.90
17200;DHT22;8716;52.268;20.968;2024-03-02T12:03:38;12.50;99.90
17200;DHT22;8716;52.268;20.968;2024-03-02T12:06:08;12.70;99.90
17200;DHT22;8716;52.268;20.968;2024-03-02T12:08:36;12.80;99.90
17200;DHT22;8716;52.268;20.968;2024-03-02T12:11:05;12.90;99.90
17200;DHT22;8716;52.268;20.968;2024-03-02T12:13:33;13.00;99.90
17200;DHT22;8716;52.268;20.968;2024-03-02T12:16:02;13.00;99.90
17200;DHT22;8716;52.268;20.968;2024-03-02T12:18:31;13.00;99.90
17200;DHT22;8716;52.268;20.968;2024-03-02T12:20:59;13.00;99.90
17200;DHT22;8716;52.268;20.968;2024-03-02T12:23:31;13.00;99.90
17200;DHT22;8716;52.268;20.968;2024-03-02T12:25:59;13.00;99.90
17200;DHT22;8716;52.268;20.968;2024-03-02T12:28:28;13.00;99.90
17200;DHT22;8716;52.268;20.968;2024-03-02T12:30:59;13.10;99.90
17200;DHT22;8716;52.268;20.968;2024-03-02T12:33:27;13.10;99.90
17200;DHT22;8716;52.268;20.968;2024-03-02T12:35:57;13.10;99.90
17200;DHT22;8716;52.268;20.968;2024-03-02T12:38:25;13.20;99.90
17200;DHT22;8716;52.268;20.968;2024-03-02T12:40:56;13.10;99.90
17200;DHT22;8716;52.268;20.968;2024-03-02T12:43:24;13.20;99.90
17200;DHT22;8716;52.268;20.968;2024-03-02T12:45:53;13.30;99.90
17200;DHT22;8716;52.268;20.968;2024-03-02T12:48:23;13.30;99.90
17200;DHT22;8716;52.268;20.968;2024-03-02T12:50:51;13.40;99.90
17200;DHT22;8716;52.268;20.968;2024-03-02T12:53:22;13.30;99.90
17200;DHT22;8716;52.268;20.968;2024-03-02T12:55:51;13.30;99.90
17200;DHT22;8716;52.268;20.968;2024-03-02T12:58:22;13.30;99.90
17200;DHT22;8716;52.268;20.968;2024-03-02T13:00:51;13.20;99.90
17200;DHT22;8716;52.268;20.968;2024-03-02T13:03:35;13.10;99.90
17200;DHT22;8716;52.268;20.968;2024-03-02T13:06:04;13.10;99.90
17200;DHT22;8716;52.268;20.968;2024-03-02T13:08:33;13.20;99.90
17200;DHT22;8716;52.268;20.968;2024-03-02T13:11:02;13.20;99.90
17200;DHT22;8716;52.268;20.968;2024-03-02T13:13:34;13.20;99.90
17200;DHT22;8716;52.268;20.968;2024-03-02T13:16:03;13.20;99.90
17200;DHT22;8716;52.268;20.968;2024-03-02T13:18:33;13.20;99.90
17200;DHT22;8716;52.268;20.968;2024-03-02T13:21:02;13.20;99.90
17200;DHT22;8716;52.268;20.968;2024-03-02T13:23:30;13.20;99.90
17200;DHT22;8716;52.268;20.968;2024-03-02T13:25:59;13.10;99.90
17200;DHT22;8716;52.268;20.968;2024-03-02T13:28:28;13.10;99.90
17200;DHT22;8716;52.268;20.968;2024-03-02T13:30:58;13.10;99.90
17200;DHT22;8716;52.268;20.968;2024-03-02T13:33:26;13.10;99.90
17200;DHT22;8716;52.268;20.968;2024-03-02T13:35:55;13.10;99.90
17200;DHT22;8716;52.268;20.968;2024-03-02T13:38:23;13.20;99.90
17200;DHT22;8716;52.268;20.968;2024-03-02T13:40:51;13.10;99.90
17200;DHT22;8716;52.268;20.968;2024-03-02T13:43:20;13.10;99.90
17200;DHT22;8716;52.268;20.968;2024-03-02T13:45:49;13.10;99.90
17200;DHT22;8716;52.268;20.968;2024-03-02T13:48:20;13.10;99.90
17200;DHT22;8716;52.268;20.968;2024-03-02T13:50:49;13.00;99.90
17200;DHT22;8716;52.268;20.968;2024-03-02T13:53:17;12.90;99.90
17200;DHT22;8716;52.268;20.968;2024-03-02T13:55:46;12.80;99.90
17200;DHT22;8716;52.268;20.968;2024-03-02T13:58:15;12.70;99.90
17200;DHT22;8716;52.268;20.968;2024-03-02T14:00:44;12.60;99.90
17200;DHT22;8716;52.268;20.968;2024-03-02T14:03:13;12.60;99.90
17200;DHT22;8716;52.268;20.968;2024-03-02T14:05:44;12.50;99.90
17200;DHT22;8716;52.268;20.968;2024-03-02T14:08:14;12.40;99.90
17200;DHT22;8716;52.268;20.968;2024-03-02T14:10:42;12.40;99.90
17200;DHT22;8716;52.268;20.968;2024-03-02T14:13:11;12.30;99.90
17200;DHT22;8716;52.268;20.968;2024-03-02T14:15:39;12.30;99.90
17200;DHT22;8716;52.268;20.968;2024-03-02T14:18:08;12.20;99.90
17200;DHT22;8716;52.268;20.968;2024-03-02T14:20:37;12.20;99.90
17200;DHT22;8716;52.268;20.968;2024-03-02T14:23:09;12.20;99.90
17200;DHT22;8716;52.268;20.968;2024-03-02T14:25:38;12.10;99.90
17200;DHT22;8716;52.268;20.968;2024-03-02T14:28:06;12.00;99.90
17200;DHT22;8716;52.268;20.968;2024-03-02T14:30:54;11.90;99.90
17200;DHT22;8716;52.268;20.968;2024-03-02T14:33:23;11.80;99.90
17200;DHT22;8716;52.268;20.968;2024-03-02T14:35:51;11.80;99.90
17200;DHT22;8716;52.268;20.968;2024-03-02T14:38:21;11.80;99.90
17200;DHT22;8716;52.268;20.968;2024-03-02T14:40:50;11.70;99.90
17200;DHT22;8716;52.268;20.968;2024-03-02T14:43:20;11.60;99.90
17200;DHT22;8716;52.268;20.968;2024-03-02T14:45:50;11.60;99.90
17200;DHT22;8716;52.268;20.968;2024-03-02T14:48:19;11.50;99.90
17200;DHT22;8716;52.268;20.968;2024-03-02T14:50:47;11.40;99.90
17200;DHT22;8716;52.268;20.968;2024-03-02T14:53:16;11.40;99.90
17200;DHT22;8716;52.268;20.968;2024-03-02T14:55:46;11.40;99.90
17200;DHT22;8716;52.268;20.968;2024-03-02T14:58:15;11.30;99.90
17200;DHT22;8716;52.268;20.968;2024-03-02T15:00:43;11.30;99.90
17200;DHT22;8716;52.268;20.968;2024-03-02T15:03:11;11.20;99.90
17200;DHT22;8716;52.268;20.968;2024-03-02T15:05:40;11.20;99.90
17200;DHT22;8716;52.268;20.968;2024-03-02T15:08:08;11.20;99.90
17200;DHT22;8716;52.268;20.968;2024-03-02T15:10:37;11.10;99.90
17200;DHT22;8716;52.268;20.968;2024-03-02T15:13:08;11.10;99.90
17200;DHT22;8716;52.268;20.968;2024-03-02T15:15:37;11.10;99.90
17200;DHT22;8716;52.268;20.968;2024-03-02T15:18:05;11.00;99.90
17200;DHT22;8716;52.268;20.968;2024-03-02T15:20:35;11.00;99.90
17200;DHT22;8716;52.268;20.968;2024-03-02T15:23:05;10.90;99.90
17200;DHT22;8716;52.268;20.968;2024-03-02T15:25:34;10.90;99.90
17200;DHT22;8716;52.268;20.968;2024-03-02T15:28:03;10.90;99.90
17200;DHT22;8716;52.268;20.968;2024-03-02T15:30:33;10.90;99.90
17200;DHT22;8716;52.268;20.968;2024-03-02T15:33:02;10.80;99.90
17200;DHT22;8716;52.268;20.968;2024-03-02T15:35:30;10.70;99.90
17200;DHT22;8716;52.268;20.968;2024-03-02T15:37:59;10.70;99.90
17200;DHT22;8716;52.268;20.968;2024-03-02T15:40:27;10.70;99.90
17200;DHT22;8716;52.268;20.968;2024-03-02T15:42:55;10.60;99.90
17200;DHT22;8716;52.268;20.968;2024-03-02T15:45:24;10.60;99.90
17200;DHT22;8716;52.268;20.968;2024-03-02T15:48:01;10.50;99.90
17200;DHT22;8716;52.268;20.968;2024-03-02T15:50:30;10.50;99.90
17200;DHT22;8716;52.268;20.968;2024-03-02T15:53:02;10.40;99.90
17200;DHT22;8716;52.268;20.968;2024-03-02T15:55:33;10.40;99.90